Latest Weather Observations for Falls Creek

IDV60801

Issued at 5:05 pm EDT Wednesday 26 November 2014 (issued every 30 minutes, with the page automatically refreshed every 10 minutes)

About weather observations | Map of weather stations | Latest weather observations for VIC | Other Formats
Station Details ID: 083084 Name: FALLS CREEK Lat: -36.87 Lon: 147.28 Height: 1765.0 m
Data from the previous 72 hours. | See also: Recent months at Falls Creek
Date/Time
EDT
Temp
°C
App
Temp
°C
Dew
Point
Rel
Hum
%
Delta-T
°C
Wind Press
QNH
hPa
Press
MSL
hPa
Rain
since 9 am
mm
Dir
 
Spd
km/h
Gust
km/h
Spd
kts
Gust
kts
26/05:00pm 10.3 7.0 6.3 76 2.1 ESE 13 20 7 11 1021.8 1017.3 0.0
26/04:30pm 12.4 9.8 6.2 66 3.2 W 9 15 5 8 1021.8 1017.3 0.0
26/04:00pm 12.5 9.3 5.2 61 3.7 W 11 17 6 9 1021.8 1017.3 0.0
26/03:30pm 12.7 9.5 4.9 59 4.0 W 11 19 6 10 1021.8 1017.3 0.0
26/03:00pm 12.7 9.4 6.3 65 3.3 NNW 13 20 7 11 1021.8 1017.3 0.0
26/02:30pm 11.2 7.2 5.1 66 3.1 NNW 15 28 8 15 1021.8 1017.3 0.0
26/02:00pm 11.6 8.5 5.5 66 3.1 WNW 11 20 6 11 1021.9 1017.5 0.0
26/01:30pm 10.7 7.2 5.5 70 2.6 NNW 13 22 7 12 1021.8 1017.3 0.0
26/01:00pm 11.5 8.3 6.8 73 2.5 NNW 13 22 7 12 1022.1 1017.7 0.0
26/12:30pm 9.4 5.3 4.2 70 2.6 NW 15 24 8 13 1022.0 1017.6 0.0
26/12:00pm 8.9 4.7 3.9 71 2.4 NW 15 22 8 12 1022.0 1017.6 0.0
26/11:30am 9.5 5.4 4.3 70 2.6 NW 15 22 8 12 1022.0 1017.6 0.0
26/11:00am 9.0 5.2 4.0 71 2.4 NW 13 20 7 11 1021.7 1017.2 0.0
26/10:30am 8.6 4.7 3.6 71 2.4 NW 13 20 7 11 1021.4 1017.0 0.0
26/10:00am 7.1 2.2 1.8 69 2.4 WNW 17 22 9 12 1021.5 1017.1 0.0
26/09:30am 6.6 1.2 1.5 70 2.3 WNW 19 26 10 14 1021.4 1017.0 0.0
26/09:00am 6.3 1.2 1.0 69 2.4 WNW 17 22 9 12 1021.3 1016.8 0.0
26/08:30am 6.8 1.7 0.9 66 2.6 NW 17 26 9 14 1021.2 1016.7 0.0
26/08:00am 5.7 1.4 0.9 71 2.1 NW 13 24 7 13 1021.2 1016.7 0.0
26/07:30am 4.9 0.6 1.0 76 1.7 NW 13 33 7 18 1020.9 1016.5 0.0
26/07:00am 4.0 -1.7 0.7 79 1.4 WNW 20 33 11 18 1020.7 1016.2 0.0
26/06:30am 3.8 -1.9 0.7 80 1.3 WNW 20 32 11 17 1020.5 1016.0 0.0
26/06:00am 3.8 -2.3 0.5 79 1.4 WNW 22 30 12 16 1020.5 1016.0 0.0
26/05:30am 3.7 -2.0 0.4 79 1.4 WNW 20 32 11 17 1020.1 1015.6 0.0
26/05:00am 3.8 -3.0 0.5 79 1.4 W 26 37 14 20 1019.9 1015.4 0.0
26/04:30am 3.8 -2.3 0.3 78 1.5 WNW 22 35 12 19 1019.8 1015.2 0.0
26/04:00am 3.6 -2.9 0.3 79 1.4 WNW 24 32 13 17 1019.9 1015.4 0.0
26/03:30am 3.5 -2.3 0.2 79 1.4 WNW 20 30 11 16 1019.9 1015.4 0.0
26/03:00am 3.4 -2.3 0.5 81 1.2 NW 20 28 11 15 1020.0 1015.5 0.0
26/02:30am 3.3 -1.9 0.4 81 1.2 NW 17 24 9 13 1020.2 1015.7 0.0
26/02:00am 3.4 -1.7 0.6 82 1.2 WNW 17 24 9 13 1020.7 1016.2 0.0
26/01:30am 3.6 -2.5 0.3 79 1.4 WNW 22 30 12 16 1020.8 1016.3 0.0
26/01:00am 3.5 -2.6 0.6 81 1.2 WNW 22 30 12 16 1021.1 1016.6 0.0
26/12:30am 3.5 -3.0 0.6 81 1.2 W 24 30 13 16 1021.2 1016.7 0.0
26/12:00am 3.4 -2.3 0.5 81 1.2 WNW 20 26 11 14 1021.7 1017.2 0.0
 
Date/Time
EDT
Temp
°C
App
Temp
°C
Dew
Point
Rel
Hum
%
Delta-T
°C
Wind Press
QNH
hPa
Press
MSL
hPa
Rain
since 9 am
mm
Dir
 
Spd
km/h
Gust
km/h
Spd
kts
Gust
kts
25/11:30pm 3.0 -1.1 0.1 81 1.2 WNW 11 17 6 9 1021.9 1017.5 0.0
25/11:00pm 3.3 -0.8 -0.2 78 1.5 WNW 11 15 6 8 1022.1 1017.7 0.0
25/10:30pm 4.1 0.7 -0.3 73 1.9 W 7 13 4 7 1022.4 1018.0 0.0
25/10:00pm 3.8 0.1 0.1 77 1.6 W 9 13 5 7 1022.3 1017.8 0.0
25/09:30pm 4.0 0.4 0.9 80 1.3 WSW 9 15 5 8 1022.1 1017.7 0.0
25/09:00pm 4.1 0.5 0.8 79 1.4 WSW 9 13 5 7 1021.9 1017.5 0.0
25/08:30pm 4.2 0.7 1.2 81 1.3 NW 9 13 5 7 1021.8 1017.3 0.0
25/08:00pm 4.7 0.5 1.6 80 1.4 NW 13 19 7 10 1021.5 1017.1 0.0
25/07:30pm 5.8 2.0 1.9 76 1.8 NW 11 17 6 9 1021.3 1016.8 0.0
25/07:00pm 6.7 2.6 2.0 72 2.1 NW 13 20 7 11 1020.9 1016.5 0.0
25/06:30pm 7.7 3.2 2.2 68 2.5 WNW 15 20 8 11 1020.5 1016.0 0.0
25/06:00pm 7.2 2.3 2.3 71 2.3 NNW 17 26 9 14 1020.2 1015.7 0.0
25/05:30pm 7.1 2.2 1.8 69 2.4 NNW 17 24 9 13 1020.0 1015.5 0.0
25/05:00pm 8.8 4.0 2.4 64 3.0 NW 17 30 9 16 1020.1 1015.6 0.0
25/04:30pm 9.4 4.6 2.7 63 3.2 NNW 17 30 9 16 1019.9 1015.4 0.0
25/04:00pm 9.2 4.3 1.9 60 3.4 NW 17 26 9 14 1019.8 1015.2 0.0
25/03:30pm 9.9 5.2 3.4 64 3.1 NW 17 28 9 15 1019.5 1015.0 0.0
25/03:00pm 8.5 2.8 2.9 68 2.6 N 22 32 12 17 1019.4 1014.9 0.0
25/02:30pm 8.3 3.2 2.8 68 2.6 N 19 28 10 15 1019.3 1014.7 0.0
25/02:00pm 9.7 6.7 4.1 68 2.7 WNW 9 24 5 13 1019.3 1014.7 0.0
25/01:30pm 8.4 4.2 1.8 63 3.0 N 13 20 7 11 1019.0 1014.5 0.0
25/01:00pm 7.7 4.9 3.0 72 2.2 W 7 19 4 10 1019.0 1014.5 0.0
25/12:30pm 7.4 4.4 2.1 69 2.4 WSW 7 17 4 9 1018.9 1014.4 0.0
25/12:00pm 6.1 1.6 -0.4 63 2.8 NW 13 19 7 10 1018.9 1014.4 0.0
25/11:30am 6.4 2.3 2.1 74 2.0 NNW 13 19 7 10 1018.7 1014.1 0.0
25/11:00am 4.2 0.5 2.4 88 0.8 N 11 19 6 10 1018.4 1013.9 0.0
25/10:30am 5.1 0.5 1.6 78 1.6 WNW 15 26 8 14 1018.1 1013.5 0.0
25/10:00am 4.3 -0.9 0.1 74 1.8 W 17 24 9 13 1017.5 1012.9 0.0
25/09:30am 3.7 -1.6 -0.3 75 1.7 W 17 26 9 14 1017.1 1012.5 0.0
25/09:00am 3.4 -2.3 0.8 83 1.1 W 20 28 11 15 1016.5 1011.9 36.6
25/08:30am 3.0 -3.0 -1.2 74 1.7 W 20 32 11 17 1015.8 1011.2 36.6
25/08:00am 1.9 -4.4 -3.6 67 2.2 WSW 20 30 11 16 1015.6 1010.9 36.6
25/07:30am 1.2 -5.3 -2.5 76 1.5 WSW 22 32 12 17 1015.2 1010.6 36.6
25/07:00am 0.5 -5.2 0.5 100 0.0 WSW 20 28 11 15 1014.8 1010.1 36.6
25/06:30am 0.0 -4.5 0.0 100 0.0 W 13 19 7 10 1014.3 1009.6 36.6
25/06:00am -0.2 -4.3 -0.2 100 0.0 WNW 11 19 6 10 1014.0 1009.3 36.6
25/05:30am 0.1 -3.6 0.1 100 0.0 WNW 9 17 5 9 1013.5 1008.7 36.6
25/05:00am 0.7 -2.9 0.7 100 0.0 W 9 17 5 9 1013.1 1008.3 36.6
25/04:30am 0.9 -2.7 0.9 100 0.0 NW 9 17 5 9 1012.7 1008.0 36.6
25/04:00am 1.2 -3.5 1.2 100 0.0 WNW 15 20 8 11 1012.5 1007.7 36.6
25/03:30am 1.9 -3.0 1.9 100 0.0 NW 17 30 9 16 1012.4 1007.6 36.6
25/03:00am 2.7 -2.7 2.7 100 0.0 NW 20 32 11 17 1012.4 1007.6 36.6
25/02:30am 3.7 -2.2 3.7 100 0.0 WNW 24 37 13 20 1012.4 1007.6 36.6
25/02:00am 4.5 -0.9 4.5 100 0.0 NW 22 35 12 19 1012.6 1007.8 36.6
25/01:30am 4.9 0.0 4.9 100 0.0 NW 20 33 11 18 1012.9 1008.1 36.6
25/01:00am 5.8 0.3 5.8 100 0.0 NW 24 35 13 19 1013.0 1008.2 36.6
25/12:30am 6.5 1.5 6.5 100 0.0 WNW 22 35 12 19 1013.3 1008.6 36.6
25/12:00am 7.2 2.0 7.2 100 0.0 WNW 24 33 13 18 1013.5 1008.7 36.6
 
Date/Time
EDT
Temp
°C
App
Temp
°C
Dew
Point
Rel
Hum
%
Delta-T
°C
Wind Press
QNH
hPa
Press
MSL
hPa
Rain
since 9 am
mm
Dir
 
Spd
km/h
Gust
km/h
Spd
kts
Gust
kts
24/11:30pm 8.0 2.6 8.0 100 0.0 W 26 35 14 19 1013.3 1008.6 36.4
24/11:00pm 9.5 6.2 9.5 100 0.0 NW 17 32 9 17 1013.2 1008.5 35.6
24/10:30pm 9.5 5.8 9.5 100 0.0 WNW 19 33 10 18 1013.5 1008.7 35.2
24/10:00pm 9.6 5.9 9.6 100 0.0 NW 19 28 10 15 1013.0 1008.2 34.8
24/09:30pm 9.5 4.1 9.5 100 0.0 NNW 28 46 15 25 1012.6 1007.8 34.8
24/09:00pm 9.3 3.5 9.3 100 0.0 NNW 30 48 16 26 1012.9 1008.1 34.6
24/08:44pm 9.4 3.2 9.4 100 0.0 NNW 32 59 17 32 1013.2 1008.5 34.4
24/08:30pm 9.3 2.9 9.3 100 0.0 N 33 44 18 24 1012.1 1007.3 31.6
24/08:04pm 9.3 3.8 9.3 100 0.0 NNW 28 48 15 26 1012.5 1007.7 28.0
24/08:00pm 9.2 5.4 9.2 100 0.0 WNW 19 37 10 20 1013.3 1008.6 27.6
24/07:39pm 9.0 3.5 9.0 100 0.0 NNW 28 59 15 32 1012.4 1007.6 23.8
24/07:30pm 9.1 4.0 9.1 100 0.0 NNW 26 37 14 20 1012.5 1007.7 22.4
24/07:23pm 9.1 3.2 9.1 100 0.0 NNW 30 48 16 26 1011.8 1007.0 21.8
24/07:14pm 9.0 1.8 9.0 100 0.0 N 37 46 20 25 1011.7 1006.9 21.4
24/07:00pm 9.9 6.3 9.9 100 0.0 WNW 19 33 10 18 1011.8 1007.0 20.6
24/06:36pm 9.2 3.7 9.2 100 0.0 NNW 28 46 15 25 1012.4 1007.6 20.2
24/06:30pm 9.0 4.2 9.0 100 0.0 WNW 24 39 13 21 1012.9 1008.1 19.8
24/06:07pm 8.9 3.0 8.9 100 0.0 NW 30 61 16 33 1013.3 1008.6 16.2
24/06:00pm 8.8 4.0 8.8 100 0.0 NW 24 46 13 25 1013.5 1008.7 15.2
24/05:54pm 8.8 3.6 8.8 100 0.0 NW 26 46 14 25 1013.5 1008.7 14.2
24/05:30pm 8.9 0.3 8.9 100 0.0 WNW 44 65 24 35 1013.8 1009.1 10.8
24/05:21pm 8.6 -1.6 8.6 100 0.0 NW 52 72 28 39 1014.4 1009.7 10.0
24/05:20pm 8.4 -2.6 8.4 100 0.0 NW 56 72 30 39 1014.2 1009.4 9.4
24/05:17pm 9.0 -1.9 9.0 100 0.0 W 56 80 30 43 1014.2 1009.4 8.0
24/05:15pm 11.6 3.7 11.6 100 0.0 NNW 44 70 24 38 1014.2 1009.4 5.8
24/05:00pm 11.5 2.9 11.5 100 0.0 NNW 48 69 26 37 1012.0 1007.2 3.6
24/04:30pm 11.5 3.2 11.5 100 0.0 NNW 46 69 25 37 1012.4 1007.6 3.4
24/04:00pm 11.3 3.5 11.3 100 0.0 NNW 43 63 23 34 1012.7 1008.0 3.4
24/03:30pm 11.0 3.2 11.0 100 0.0 NNW 43 63 23 34 1013.3 1008.6 3.4
24/03:00pm 10.7 3.2 10.7 100 0.0 NNW 41 59 22 32 1013.7 1008.9 3.2
24/02:30pm 10.9 3.4 10.9 100 0.0 NNW 41 61 22 33 1013.9 1009.2 3.2
24/02:01pm 11.2 3.2 11.2 100 0.0 N 44 63 24 34 1014.4 1009.7 3.2
24/02:00pm 11.0 3.2 11.0 100 0.0 N 43 59 23 32 1014.2 1009.4 3.2
24/01:54pm 10.8 3.3 10.8 100 0.0 N 41 59 22 32 1014.4 1009.7 3.2
24/01:30pm 11.0 3.9 11.0 100 0.0 NNW 39 54 21 29 1014.6 1009.9 3.0
24/01:00pm 10.6 4.5 10.6 100 0.0 NNW 33 44 18 24 1015.7 1011.0 3.0
24/12:35pm 10.7 2.8 10.7 100 0.0 NNW 43 61 23 33 1016.2 1011.5 3.0
24/12:30pm 10.6 2.5 10.6 100 0.0 N 44 61 24 33 1016.2 1011.5 3.0
24/12:09pm 11.1 3.1 11.1 100 0.0 N 44 65 24 35 1016.5 1011.9 2.6
24/12:00pm 11.5 4.2 11.5 100 0.0 N 41 56 22 30 1016.7 1012.0 2.4
24/11:30am 11.5 4.2 11.5 100 0.0 NNW 41 59 22 32 1017.6 1013.0 1.0
24/11:00am 11.4 3.7 11.4 100 0.0 NNW 43 61 23 33 1018.1 1013.5 0.0
24/10:30am 11.3 3.5 11.3 100 0.0 NNW 43 61 23 33 1017.9 1013.3 0.0
24/10:19am 11.3 3.0 11.3 100 0.0 NNW 46 65 25 35 1018.0 1013.4 0.0
24/10:00am 11.2 3.7 10.9 98 0.2 NNW 41 57 22 31 1018.0 1013.4 0.0
24/09:47am 11.1 3.9 10.5 96 0.3 NNW 39 57 21 31 1018.1 1013.5 0.0
24/09:30am 11.2 3.5 10.1 93 0.6 NNW 41 54 22 29 1018.4 1013.9 0.0
24/09:00am 11.8 4.3 9.5 86 1.3 NNW 39 59 21 32 1018.9 1014.4 0.2
24/08:32am 11.8 3.3 8.6 81 1.7 NNW 43 63 23 34 1018.9 1014.4 0.2
24/08:30am 11.8 3.3 8.6 81 1.7 NNW 43 57 23 31 1018.8 1014.3 0.2
24/08:03am 12.5 4.2 7.8 73 2.5 NNW 41 59 22 32 1018.8 1014.3 0.2
24/08:00am 12.7 4.4 7.6 71 2.7 NNW 41 52 22 28 1018.9 1014.4 0.2
24/07:30am 13.1 4.4 6.2 63 3.6 NNW 41 63 22 34 1018.6 1014.0 0.2
24/07:09am 13.2 6.0 5.9 61 3.8 NNW 33 54 18 29 1018.6 1014.0 0.2
24/07:00am 13.4 5.8 5.6 59 4.0 NNW 35 48 19 26 1018.6 1014.0 0.2
24/06:30am 13.6 6.5 5.7 59 4.1 NNW 32 46 17 25 1018.8 1014.3 0.2
24/06:00am 13.1 6.5 6.2 63 3.6 NNW 30 41 16 22 1018.9 1014.4 0.2
24/05:30am 12.8 7.5 6.6 66 3.3 NNW 24 33 13 18 1018.7 1014.1 0.2
24/05:00am 12.7 7.0 6.5 66 3.3 NNW 26 35 14 19 1018.7 1014.1 0.2
24/04:30am 12.5 6.4 6.5 67 3.2 NNW 28 35 15 19 1018.7 1014.1 0.2
24/04:00am 12.2 6.1 6.5 68 3.0 NNW 28 41 15 22 1018.9 1014.4 0.2
24/03:30am 12.1 5.6 6.6 69 2.9 NNW 30 43 16 23 1019.0 1014.5 0.2
24/03:00am 12.0 5.2 6.7 70 2.8 NNW 32 43 17 23 1019.3 1014.7 0.2
24/02:30am 11.9 6.1 7.8 76 2.2 NNW 28 35 15 19 1020.0 1015.5 0.2
24/02:00am 12.0 6.8 7.3 73 2.5 NNW 24 37 13 20 1020.3 1015.9 0.2
24/01:30am 12.5 7.5 8.0 74 2.4 NNW 24 33 13 18 1021.7 1017.2 0.2
24/01:00am 14.0 8.8 7.3 64 3.6 NNW 24 39 13 21 1021.9 1017.5 0.0
24/12:30am 14.0 9.4 8.2 68 3.2 NNW 22 32 12 17 1022.0 1017.6 0.0
24/12:00am 14.7 11.1 5.2 53 4.9 NNW 13 17 7 9 1021.7 1017.2 0.0
 
Date/Time
EDT
Temp
°C
App
Temp
°C
Dew
Point
Rel
Hum
%
Delta-T
°C
Wind Press
QNH
hPa
Press
MSL
hPa
Rain
since 9 am
mm
Dir
 
Spd
km/h
Gust
km/h
Spd
kts
Gust
kts
23/11:30pm 15.4 10.9 4.2 47 5.7 W 17 26 9 14 1021.5 1017.1 0.0
23/11:00pm 14.4 11.7 5.5 55 4.6 W 9 17 5 9 1021.4 1017.0 0.0
23/10:30pm 14.2 11.2 7.9 66 3.4 NW 13 22 7 12 1022.3 1017.8 0.0
23/10:00pm 14.4 10.2 8.4 67 3.3 WNW 20 32 11 17 1021.8 1017.3 0.0
23/09:30pm 14.7 10.3 8.9 68 3.2 NW 22 35 12 19 1021.8 1017.3 0.0
23/09:00pm 14.9 10.0 8.4 65 3.6 NW 24 37 13 20 1021.5 1017.1 0.0
23/08:30pm 14.8 10.6 7.4 61 4.0 NW 19 26 10 14 1020.8 1016.3 0.0
23/08:00pm 15.3 10.0 6.8 57 4.6 NNW 24 35 13 19 1020.3 1015.9 0.0
23/07:30pm 15.9 10.4 6.1 52 5.2 NNW 24 37 13 20 1019.8 1015.2 0.0
23/07:00pm 16.2 9.9 7.2 55 4.9 NNW 30 54 16 29 1019.3 1014.7 0.0
23/06:30pm 17.2 9.9 7.3 52 5.4 NNW 35 54 19 29 1019.0 1014.5 0.0
23/06:07pm 17.9 11.3 7.9 52 5.6 NNW 32 50 17 27 1018.9 1014.4 0.0
23/06:00pm 18.1 12.0 8.1 52 5.6 NNW 30 44 16 24 1019.0 1014.5 0.0
23/05:31pm 18.8 13.3 9.0 53 5.6 NNW 28 46 15 25 1019.3 1014.7 0.0
23/05:30pm 18.8 13.0 9.3 54 5.5 NNW 30 46 16 25 1019.4 1014.9 0.0

Other Formats:

Comma delimited format used in spreadsheet applications
http://www.bom.gov.au/fwo/IDV60801/IDV60801.94903.axf

JavaScript Object Notation format (JSON) in row-major order
http://www.bom.gov.au/fwo/IDV60801/IDV60801.94903.json